createdAt,value
2023-02-20T00:00:36.638Z,18.60
2023-02-20T00:02:57.044Z,23.63
2023-02-20T00:05:18.045Z,14.95
2023-02-20T00:07:38.016Z,14.50
2023-02-20T00:09:58.073Z,10.63
2023-02-20T00:12:21.800Z,11.52
2023-02-20T00:14:41.811Z,11.63
2023-02-20T00:17:02.651Z,11.85
2023-02-20T00:19:22.317Z,12.27
2023-02-20T00:21:49.642Z,16.15
2023-02-20T00:24:09.552Z,16.65
2023-02-20T00:26:29.571Z,14.98
2023-02-20T00:28:49.935Z,13.48
2023-02-20T00:31:17.828Z,14.73
2023-02-20T00:33:37.894Z,15.65
2023-02-20T00:35:59.351Z,15.30
2023-02-20T00:38:19.331Z,16.58
2023-02-20T00:40:39.481Z,17.45
2023-02-20T00:42:58.991Z,18.92
2023-02-20T00:45:18.981Z,18.25
2023-02-20T00:47:39.003Z,16.95
2023-02-20T00:49:59.147Z,15.63
2023-02-20T00:52:20.332Z,14.68
2023-02-20T00:54:40.418Z,15.55
2023-02-20T00:57:00.579Z,13.57
2023-02-20T00:59:20.291Z,15.25
2023-02-20T01:01:41.449Z,21.17
2023-02-20T01:04:01.467Z,20.20
2023-02-20T01:06:21.727Z,16.48
2023-02-20T01:08:42.165Z,14.65
2023-02-20T01:11:02.168Z,15.50
2023-02-20T01:13:22.164Z,15.98
2023-02-20T01:15:42.364Z,15.93
2023-02-20T01:18:02.467Z,15.23
2023-02-20T01:20:22.483Z,16.33
2023-02-20T01:22:42.463Z,16.20
2023-02-20T01:25:02.837Z,15.23
2023-02-20T01:27:22.596Z,14.80
2023-02-20T01:29:42.689Z,14.20
2023-02-20T01:32:02.654Z,14.98
2023-02-20T01:34:22.899Z,15.57
2023-02-20T01:36:51.035Z,15.18
2023-02-20T01:39:10.852Z,15.07
2023-02-20T01:41:32.572Z,16.92
2023-02-20T01:43:52.767Z,17.53
2023-02-20T01:46:27.860Z,15.88
2023-02-20T01:48:47.813Z,17.13
2023-02-20T01:51:07.979Z,17.35
2023-02-20T01:53:30.283Z,16.50
2023-02-20T01:55:53.097Z,15.80
2023-02-20T01:58:24.957Z,14.00
2023-02-20T02:00:47.006Z,14.80
2023-02-20T02:03:13.408Z,15.38
2023-02-20T02:05:34.169Z,14.10
2023-02-20T02:07:55.959Z,12.98
2023-02-20T02:10:28.952Z,15.57
2023-02-20T02:12:52.159Z,14.13
2023-02-20T02:15:17.997Z,13.93
2023-02-20T02:17:59.863Z,15.05
2023-02-20T02:20:22.304Z,13.57
2023-02-20T02:23:12.378Z,14.98
2023-02-20T02:26:04.916Z,13.75
2023-02-20T02:29:25.032Z,13.40
2023-02-20T02:32:31.092Z,13.77
2023-02-20T02:34:56.472Z,13.45
2023-02-20T02:37:42.683Z,13.02
2023-02-20T02:40:27.812Z,12.63
2023-02-20T02:43:06.410Z,12.45
2023-02-20T02:45:36.557Z,12.85
2023-02-20T02:48:13.523Z,13.25
2023-02-20T02:50:36.358Z,13.40
2023-02-20T02:52:58.044Z,13.75
2023-02-20T02:55:29.641Z,14.85
2023-02-20T02:57:49.735Z,14.57
2023-02-20T03:00:17.332Z,14.40
2023-02-20T03:02:59.380Z,15.88
2023-02-20T03:05:23.071Z,14.55
2023-02-20T03:07:44.807Z,14.77
2023-02-20T03:10:08.628Z,15.07
2023-02-20T03:12:30.235Z,14.30
2023-02-20T03:15:24.097Z,14.68
2023-02-20T03:18:12.638Z,13.38
2023-02-20T03:20:32.480Z,14.90
2023-02-20T03:23:02.722Z,13.52
2023-02-20T03:25:41.643Z,15.05
2023-02-20T03:28:09.596Z,13.40
2023-02-20T03:30:41.396Z,13.68
2023-02-20T03:33:29.356Z,13.27
2023-02-20T03:36:11.894Z,12.93
2023-02-20T03:38:52.902Z,14.63
2023-02-20T03:41:33.385Z,13.05
2023-02-20T03:43:54.777Z,14.45
2023-02-20T03:46:22.373Z,13.75
2023-02-20T03:48:47.702Z,12.98
2023-02-20T03:51:11.035Z,11.88
2023-02-20T03:55:52.895Z,12.60
2023-02-20T03:58:15.585Z,12.63
2023-02-20T04:00:42.151Z,12.02
2023-02-20T04:03:15.444Z,14.55
2023-02-20T04:08:06.930Z,13.48
2023-02-20T04:10:30.716Z,13.50
2023-02-20T04:12:52.269Z,12.38
2023-02-20T04:15:13.422Z,11.95
2023-02-20T04:17:51.323Z,13.38
2023-02-20T04:20:11.545Z,14.02
2023-02-20T04:22:38.408Z,11.65
2023-02-20T04:25:01.594Z,12.88
2023-02-20T04:27:23.034Z,13.77
2023-02-20T04:29:42.902Z,15.43
2023-02-20T04:32:03.111Z,15.60
2023-02-20T04:34:23.119Z,15.05
2023-02-20T04:36:43.240Z,18.20
2023-02-20T04:39:03.317Z,16.33
2023-02-20T04:41:25.560Z,17.55
2023-02-20T04:43:46.516Z,16.00
2023-02-20T04:46:06.385Z,15.20
2023-02-20T04:48:26.566Z,13.25
2023-02-20T04:50:46.298Z,13.10
2023-02-20T04:53:07.271Z,13.05
2023-02-20T04:55:28.168Z,14.60
2023-02-20T04:57:48.936Z,14.57
2023-02-20T05:00:09.874Z,13.43
2023-02-20T05:02:29.961Z,14.55
2023-02-20T05:04:49.993Z,14.63
2023-02-20T05:07:11.045Z,13.77
2023-02-20T05:09:31.498Z,14.30
2023-02-20T05:11:52.125Z,13.35
2023-02-20T05:14:12.291Z,13.63
2023-02-20T05:16:32.506Z,15.63
2023-02-20T05:18:52.224Z,14.80
2023-02-20T05:21:33.835Z,16.05
2023-02-20T05:23:53.928Z,14.63
2023-02-20T05:26:17.750Z,14.60
2023-02-20T05:28:39.188Z,13.25
2023-02-20T05:31:00.302Z,16.27
2023-02-20T05:33:20.576Z,19.27
2023-02-20T05:35:41.474Z,17.83
2023-02-20T05:38:01.692Z,15.88
2023-02-20T05:40:22.034Z,17.15
2023-02-20T05:42:42.582Z,18.33
2023-02-20T05:45:03.861Z,17.33
2023-02-20T05:47:25.212Z,19.38
2023-02-20T05:49:46.775Z,15.85
2023-02-20T05:52:10.879Z,15.88
2023-02-20T05:54:30.575Z,15.07
2023-02-20T05:56:51.790Z,18.05
2023-02-20T05:59:13.831Z,16.77
2023-02-20T06:01:35.049Z,21.57
2023-02-20T06:03:54.943Z,25.67
2023-02-20T06:06:17.030Z,21.02
2023-02-20T06:08:36.873Z,19.38
2023-02-20T06:10:56.937Z,19.08
2023-02-20T06:13:16.687Z,19.20
2023-02-20T06:15:36.300Z,22.15
2023-02-20T06:17:56.199Z,17.85
2023-02-20T06:20:16.635Z,17.65
2023-02-20T06:22:36.736Z,16.98
2023-02-20T06:24:56.786Z,18.60
2023-02-20T06:27:17.480Z,18.38
2023-02-20T06:29:37.452Z,16.45
2023-02-20T06:31:59.525Z,17.40
2023-02-20T06:34:19.425Z,19.02
2023-02-20T06:36:41.186Z,16.65
2023-02-20T06:39:01.538Z,17.20
2023-02-20T06:41:21.599Z,19.73
2023-02-20T06:43:41.630Z,22.23
2023-02-20T06:46:03.026Z,28.38
2023-02-20T06:48:23.211Z,26.33
2023-02-20T06:50:44.070Z,25.88
2023-02-20T06:53:04.097Z,27.63
2023-02-20T06:55:24.298Z,28.48
2023-02-20T06:57:44.520Z,27.15
2023-02-20T07:00:05.609Z,23.85
2023-02-20T07:02:25.591Z,25.17
2023-02-20T07:04:49.590Z,41.53
2023-02-20T07:07:11.795Z,28.00
2023-02-20T07:09:32.012Z,36.88
2023-02-20T07:11:54.671Z,28.52
2023-02-20T07:14:14.307Z,33.60
2023-02-20T07:16:34.197Z,23.92
2023-02-20T07:18:54.060Z,27.00
2023-02-20T07:21:13.789Z,40.63
2023-02-20T07:23:34.011Z,20.23
2023-02-20T07:25:54.125Z,15.60
2023-02-20T07:28:14.335Z,14.35
2023-02-20T07:30:34.336Z,15.55
2023-02-20T07:32:54.587Z,14.05
2023-02-20T07:35:14.713Z,14.75
2023-02-20T07:37:35.553Z,13.45
2023-02-20T07:39:55.903Z,13.50
2023-02-20T07:42:17.494Z,18.25
2023-02-20T07:44:37.577Z,17.52
2023-02-20T07:46:58.720Z,26.77
2023-02-20T07:49:18.469Z,20.00
2023-02-20T07:51:38.781Z,15.65
2023-02-20T07:53:59.192Z,15.38
2023-02-20T07:56:20.298Z,13.27
2023-02-20T07:58:40.565Z,15.32
2023-02-20T08:01:00.644Z,23.17
2023-02-20T08:03:20.778Z,18.92
2023-02-20T08:05:48.951Z,21.88
2023-02-20T08:08:09.424Z,36.55
2023-02-20T08:10:29.800Z,26.45
2023-02-20T08:12:50.691Z,26.45
2023-02-20T08:15:11.623Z,23.45
2023-02-20T08:17:45.573Z,17.30
2023-02-20T08:20:08.412Z,14.10
2023-02-20T08:22:41.184Z,11.70
2023-02-20T08:25:03.482Z,10.65
2023-02-20T08:27:23.573Z,11.70
2023-02-20T08:29:45.311Z,16.00
2023-02-20T08:32:06.493Z,12.83
2023-02-20T08:34:26.422Z,14.98
2023-02-20T08:36:46.274Z,12.10
2023-02-20T08:39:05.853Z,11.95
2023-02-20T08:41:25.984Z,13.88
2023-02-20T08:43:46.069Z,12.15
2023-02-20T08:46:07.139Z,14.60
2023-02-20T08:48:27.044Z,11.77
2023-02-20T08:50:47.268Z,12.40
2023-02-20T08:53:07.745Z,10.70
2023-02-20T08:55:27.611Z,15.13
2023-02-20T08:57:48.133Z,13.25
2023-02-20T09:00:08.578Z,17.25
2023-02-20T09:02:29.002Z,13.93
2023-02-20T09:04:50.047Z,13.23
2023-02-20T09:07:11.950Z,13.60
2023-02-20T09:09:32.023Z,11.85
2023-02-20T09:11:53.301Z,12.23
2023-02-20T09:14:13.571Z,13.18
2023-02-20T09:16:34.980Z,12.60
2023-02-20T09:18:56.523Z,12.60
2023-02-20T09:21:19.043Z,11.87
2023-02-20T09:23:39.143Z,9.82
2023-02-20T09:26:00.924Z,13.43
2023-02-20T09:28:20.481Z,9.25
2023-02-20T09:30:40.298Z,11.88
2023-02-20T09:33:00.432Z,8.68
2023-02-20T09:35:23.643Z,7.80
2023-02-20T09:37:44.310Z,7.82
2023-02-20T09:40:04.165Z,8.32
2023-02-20T09:42:27.162Z,7.85
2023-02-20T09:44:49.488Z,7.32
2023-02-20T09:47:33.624Z,7.32
2023-02-20T09:49:59.450Z,6.80
2023-02-20T09:52:22.922Z,7.03
2023-02-20T09:55:06.833Z,6.28
2023-02-20T09:57:30.294Z,7.75
2023-02-20T09:59:51.697Z,4.72
2023-02-20T10:02:35.006Z,5.50
2023-02-20T10:05:03.897Z,4.43
2023-02-20T10:07:32.813Z,4.40
2023-02-20T10:09:54.076Z,5.25
2023-02-20T10:12:48.510Z,4.90
2023-02-20T10:15:23.037Z,3.83
2023-02-20T10:18:32.020Z,3.35
2023-02-20T10:21:00.750Z,3.90
2023-02-20T10:23:38.173Z,3.80
2023-02-20T10:26:04.246Z,2.70
2023-02-20T10:28:25.269Z,2.72
2023-02-20T10:30:57.458Z,2.83
2023-02-20T10:33:41.489Z,3.53
2023-02-20T10:36:18.018Z,2.65
2023-02-20T10:39:03.001Z,3.30
2023-02-20T10:41:50.556Z,3.85
2023-02-20T10:44:27.288Z,3.10
2023-02-20T10:47:37.352Z,4.40
2023-02-20T10:50:05.283Z,2.90
2023-02-20T10:52:56.875Z,3.38
2023-02-20T10:55:28.687Z,3.25
2023-02-20T10:57:57.905Z,3.20
2023-02-20T11:00:26.974Z,4.38
2023-02-20T11:02:56.975Z,3.17
2023-02-20T11:05:21.816Z,3.47
2023-02-20T11:07:42.913Z,2.97
2023-02-20T11:10:03.656Z,3.13
2023-02-20T11:12:32.572Z,3.58
2023-02-20T11:14:55.430Z,4.32
2023-02-20T11:17:20.135Z,3.38
2023-02-20T11:19:46.042Z,4.38
2023-02-20T11:22:06.700Z,3.20
2023-02-20T11:24:30.902Z,2.67
2023-02-20T11:27:15.283Z,2.47
2023-02-20T11:30:01.520Z,3.10
2023-02-20T11:32:29.069Z,4.25
2023-02-20T11:35:17.173Z,3.40
2023-02-20T11:37:49.261Z,2.75
2023-02-20T11:40:34.470Z,3.22
2023-02-20T11:42:54.833Z,3.20
2023-02-20T11:45:17.377Z,4.35
2023-02-20T11:47:37.904Z,2.90
2023-02-20T11:50:20.605Z,3.15
2023-02-20T11:55:27.242Z,2.50
2023-02-20T11:57:48.276Z,2.60
2023-02-20T12:00:21.843Z,2.53
2023-02-20T12:03:22.414Z,2.63
2023-02-20T12:05:46.283Z,2.33
2023-02-20T12:08:25.320Z,2.58
2023-02-20T12:10:47.764Z,1.98
2023-02-20T12:13:17.331Z,1.98
2023-02-20T12:15:42.005Z,1.92
2023-02-20T12:18:35.746Z,2.95
2023-02-20T12:25:04.006Z,2.25
2023-02-20T12:27:45.339Z,2.97
2023-02-20T12:30:39.108Z,2.45
2023-02-20T12:33:10.901Z,2.63
2023-02-20T12:35:35.719Z,2.15
2023-02-20T12:38:16.471Z,2.50
2023-02-20T12:41:15.688Z,2.10
2023-02-20T12:44:12.984Z,3.08
2023-02-20T12:47:22.646Z,2.97
2023-02-20T12:49:50.040Z,2.88
2023-02-20T12:52:43.644Z,1.88
2023-02-20T12:55:32.046Z,2.03
2023-02-20T12:58:18.141Z,2.33
2023-02-20T13:01:03.506Z,2.15
2023-02-20T13:03:30.788Z,2.88
2023-02-20T13:05:52.492Z,2.78
2023-02-20T13:08:23.006Z,1.60
2023-02-20T13:10:52.625Z,2.20
2023-02-20T13:13:12.791Z,1.63
2023-02-20T13:16:29.217Z,1.90
2023-02-20T13:19:19.361Z,3.30
2023-02-20T13:21:39.539Z,2.20
2023-02-20T13:24:18.185Z,2.28
2023-02-20T13:26:37.865Z,1.63
2023-02-20T13:29:23.229Z,1.92
2023-02-20T13:31:52.167Z,2.30
2023-02-20T13:34:14.661Z,1.83
2023-02-20T13:36:45.261Z,2.17
2023-02-20T13:39:24.690Z,2.00
2023-02-20T13:41:53.541Z,2.05
2023-02-20T13:44:29.108Z,1.90
2023-02-20T13:47:01.905Z,1.90
2023-02-20T13:49:43.855Z,2.42
2023-02-20T13:52:42.321Z,2.28
2023-02-20T13:55:10.133Z,2.25
2023-02-20T13:57:35.685Z,1.70
2023-02-20T13:59:55.652Z,1.77
2023-02-20T14:02:20.509Z,2.03
2023-02-20T14:05:01.341Z,2.05
2023-02-20T14:07:29.103Z,2.03
2023-02-20T14:10:00.504Z,2.30
2023-02-20T14:12:20.573Z,1.85
2023-02-20T14:14:45.496Z,2.80
2023-02-20T14:17:15.118Z,2.20
2023-02-20T14:19:45.661Z,2.38
2023-02-20T14:22:22.360Z,2.55
2023-02-20T14:24:42.256Z,2.47
2023-02-20T14:27:02.103Z,3.10
2023-02-20T14:29:31.234Z,2.33
2023-02-20T14:31:53.797Z,2.35
2023-02-20T14:34:39.234Z,2.13
2023-02-20T14:37:06.644Z,3.17
2023-02-20T14:39:46.713Z,2.60
2023-02-20T14:42:15.082Z,2.28
2023-02-20T14:44:34.955Z,3.45
2023-02-20T14:47:16.012Z,3.40
2023-02-20T14:49:36.000Z,2.83
2023-02-20T14:52:29.317Z,2.80
2023-02-20T14:57:17.315Z,2.45
2023-02-20T14:59:39.253Z,3.33
2023-02-20T15:02:32.768Z,3.45
2023-02-20T15:05:17.607Z,1.98
2023-02-20T15:07:39.729Z,2.58
2023-02-20T15:10:02.190Z,3.22
2023-02-20T15:12:37.377Z,2.60
2023-02-20T15:15:06.894Z,2.60
2023-02-20T15:17:38.646Z,2.28
2023-02-20T15:19:58.802Z,3.00
2023-02-20T15:22:28.988Z,2.50
2023-02-20T15:24:49.012Z,2.28
2023-02-20T15:27:23.877Z,2.60
2023-02-20T15:29:45.707Z,2.42
2023-02-20T15:32:14.699Z,3.17
2023-02-20T15:34:37.175Z,3.47
2023-02-20T15:36:58.582Z,3.50
2023-02-20T15:39:19.135Z,3.13
2023-02-20T15:41:40.788Z,3.28
2023-02-20T15:44:00.914Z,3.15
2023-02-20T15:46:20.788Z,2.88
2023-02-20T15:48:40.700Z,2.33
2023-02-20T15:51:01.161Z,3.17
2023-02-20T15:53:25.020Z,3.58
2023-02-20T15:55:45.451Z,3.67
2023-02-20T15:58:22.364Z,3.13
2023-02-20T16:00:44.045Z,2.90
2023-02-20T16:03:04.343Z,4.45
2023-02-20T16:05:24.609Z,4.30
2023-02-20T16:07:44.881Z,4.93
2023-02-20T16:10:05.329Z,4.90
2023-02-20T16:12:27.888Z,4.68
2023-02-20T16:14:52.864Z,6.93
2023-02-20T16:17:19.538Z,5.45
2023-02-20T16:19:42.612Z,5.03
2023-02-20T16:22:02.848Z,5.07
2023-02-20T16:24:23.055Z,4.93
2023-02-20T16:26:49.190Z,5.10
2023-02-20T16:29:17.489Z,5.75
2023-02-20T16:31:53.266Z,5.53
2023-02-20T16:34:21.393Z,5.75
2023-02-20T16:36:41.813Z,6.07
2023-02-20T16:39:01.872Z,5.20
2023-02-20T16:41:21.656Z,5.22
2023-02-20T16:43:41.725Z,5.82
2023-02-20T16:46:01.513Z,6.13
2023-02-20T16:48:21.717Z,4.78
2023-02-20T16:50:41.879Z,5.63
2023-02-20T16:53:02.590Z,5.82
2023-02-20T16:55:38.658Z,5.85
2023-02-20T16:57:59.457Z,5.10
2023-02-20T17:00:22.195Z,6.68
2023-02-20T17:02:42.097Z,5.53
2023-02-20T17:05:02.392Z,5.47
2023-02-20T17:07:23.694Z,7.80
2023-02-20T17:09:46.429Z,6.20
2023-02-20T17:12:07.422Z,5.95
2023-02-20T17:14:27.398Z,6.90
2023-02-20T17:16:49.236Z,7.05
2023-02-20T17:19:10.612Z,7.72
2023-02-20T17:21:31.358Z,6.38
2023-02-20T17:23:51.097Z,7.10
2023-02-20T17:26:13.607Z,6.68
2023-02-20T17:28:35.693Z,8.57
2023-02-20T17:30:55.952Z,9.52
2023-02-20T17:33:15.824Z,9.48
2023-02-20T17:35:36.073Z,8.55
2023-02-20T17:37:55.860Z,9.30
2023-02-20T17:40:16.407Z,8.23
2023-02-20T17:42:36.558Z,11.88
2023-02-20T17:44:56.528Z,10.80
2023-02-20T17:47:16.725Z,7.88
2023-02-20T17:49:36.545Z,8.93
2023-02-20T17:52:00.782Z,10.02
2023-02-20T17:54:24.184Z,10.25
2023-02-20T17:56:45.966Z,10.27
2023-02-20T17:59:06.123Z,10.27
2023-02-20T18:01:26.929Z,12.07
2023-02-20T18:03:47.266Z,17.42
2023-02-20T18:06:07.502Z,15.40
2023-02-20T18:08:27.668Z,15.13
2023-02-20T18:10:48.819Z,13.65
2023-02-20T18:13:08.902Z,18.33
2023-02-20T18:15:36.988Z,18.73
2023-02-20T18:17:56.995Z,21.40
2023-02-20T18:20:17.318Z,17.52
2023-02-20T18:22:37.572Z,11.90
2023-02-20T18:24:57.614Z,12.27
2023-02-20T18:27:19.069Z,10.93
2023-02-20T18:29:39.405Z,10.75
2023-02-20T18:31:59.650Z,11.60
2023-02-20T18:34:21.029Z,14.27
2023-02-20T18:36:40.888Z,11.77
2023-02-20T18:39:00.601Z,14.00
2023-02-20T18:41:20.872Z,13.30
2023-02-20T18:43:45.438Z,16.17
2023-02-20T18:46:06.596Z,15.20
2023-02-20T18:48:26.485Z,19.20
2023-02-20T18:50:49.164Z,19.13
2023-02-20T18:53:09.150Z,17.73
2023-02-20T18:55:28.860Z,19.20
2023-02-20T18:57:50.207Z,20.55
2023-02-20T19:00:11.719Z,18.73
2023-02-20T19:02:34.775Z,16.75
2023-02-20T19:05:00.756Z,15.10
2023-02-20T19:07:20.914Z,14.10
2023-02-20T19:09:40.620Z,13.27
2023-02-20T19:12:00.600Z,16.15
2023-02-20T19:14:22.236Z,15.57
2023-02-20T19:16:49.916Z,14.90
2023-02-20T19:19:11.932Z,16.67
2023-02-20T19:21:32.195Z,17.93
2023-02-20T19:23:52.072Z,18.60
2023-02-20T19:26:12.978Z,18.83
2023-02-20T19:28:33.262Z,21.85
2023-02-20T19:30:53.369Z,19.60
2023-02-20T19:33:13.525Z,20.63
2023-02-20T19:35:33.602Z,19.10
2023-02-20T19:37:53.697Z,19.77
2023-02-20T19:40:13.862Z,20.98
2023-02-20T19:42:35.290Z,25.52
2023-02-20T19:44:55.661Z,22.05
2023-02-20T19:47:16.561Z,25.33
2023-02-20T19:49:38.023Z,22.90
2023-02-20T19:51:59.350Z,25.38
2023-02-20T19:54:26.991Z,26.15
2023-02-20T19:56:52.823Z,24.77
2023-02-20T19:59:12.901Z,21.55
2023-02-20T20:01:33.196Z,25.08
2023-02-20T20:03:53.308Z,28.08
2023-02-20T20:06:16.411Z,29.20
2023-02-20T20:08:40.199Z,23.60
2023-02-20T20:11:01.221Z,29.90
2023-02-20T20:13:21.427Z,39.67
2023-02-20T20:15:42.995Z,38.40
2023-02-20T20:18:03.932Z,37.42
2023-02-20T20:20:24.244Z,40.55
2023-02-20T20:22:47.667Z,43.08
2023-02-20T20:25:09.947Z,48.83
2023-02-20T20:27:29.596Z,53.50
2023-02-20T20:29:50.153Z,60.17
2023-02-20T20:32:09.923Z,59.10
2023-02-20T20:34:29.845Z,43.38
2023-02-20T20:36:49.472Z,37.67
2023-02-20T20:39:09.107Z,32.55
2023-02-20T20:41:36.181Z,54.63
2023-02-20T20:44:03.929Z,50.50
2023-02-20T20:46:23.723Z,47.78
2023-02-20T20:48:45.006Z,51.97
2023-02-20T20:51:06.002Z,56.58
2023-02-20T20:53:25.742Z,51.35
2023-02-20T20:55:45.880Z,54.60
2023-02-20T20:58:05.705Z,40.15
2023-02-20T21:00:31.834Z,31.55
2023-02-20T21:02:55.360Z,29.58
2023-02-20T21:05:16.642Z,41.05
2023-02-20T21:07:37.648Z,37.80
2023-02-20T21:09:57.453Z,31.17
2023-02-20T21:12:17.221Z,40.38
2023-02-20T21:14:39.946Z,34.45
2023-02-20T21:17:00.316Z,20.30
2023-02-20T21:19:20.684Z,40.17
2023-02-20T21:21:40.508Z,56.63
2023-02-20T21:24:00.653Z,31.85
2023-02-20T21:26:21.603Z,34.40
2023-02-20T21:28:41.716Z,35.58
2023-02-20T21:31:02.143Z,36.42
2023-02-20T21:33:22.445Z,53.58
2023-02-20T21:35:42.339Z,47.63
2023-02-20T21:38:02.576Z,34.90
2023-02-20T21:40:22.340Z,37.22
2023-02-20T21:43:00.366Z,37.30
2023-02-20T21:45:20.274Z,36.53
2023-02-20T21:47:40.419Z,26.27
2023-02-20T21:50:00.131Z,20.67
2023-02-20T21:52:21.020Z,26.60
2023-02-20T21:54:45.822Z,22.48
2023-02-20T21:57:06.958Z,44.17
2023-02-20T21:59:27.203Z,26.83
2023-02-20T22:01:47.948Z,32.53
2023-02-20T22:04:09.821Z,22.13
2023-02-20T22:06:30.062Z,18.80
2023-02-20T22:09:08.252Z,19.90
2023-02-20T22:11:46.530Z,24.05
2023-02-20T22:14:24.705Z,29.13
2023-02-20T22:17:03.168Z,22.58
2023-02-20T22:19:41.811Z,21.33
2023-02-20T22:22:20.476Z,19.92
2023-02-20T22:24:58.809Z,19.45
2023-02-20T22:27:37.390Z,20.65
2023-02-20T22:30:15.902Z,27.95
2023-02-20T22:32:55.070Z,25.17
2023-02-20T22:35:33.802Z,27.77
2023-02-20T22:38:12.255Z,26.50
2023-02-20T22:40:50.797Z,31.17
2023-02-20T22:43:29.319Z,33.50
2023-02-20T22:46:08.502Z,39.15
2023-02-20T22:48:47.957Z,73.28
2023-02-20T22:51:27.099Z,56.08
2023-02-20T22:54:05.127Z,49.05
2023-02-20T22:56:44.064Z,33.67
2023-02-20T22:59:23.342Z,30.33
2023-02-20T23:02:02.191Z,36.97
2023-02-20T23:04:40.660Z,36.70
2023-02-20T23:07:20.433Z,31.75
2023-02-20T23:09:58.873Z,49.33
2023-02-20T23:12:37.529Z,54.22
2023-02-20T23:15:16.542Z,49.30
2023-02-20T23:17:54.781Z,35.63
2023-02-20T23:20:36.338Z,37.15
2023-02-20T23:23:14.810Z,34.45
2023-02-20T23:25:52.857Z,28.42
2023-02-20T23:28:36.947Z,25.33
2023-02-20T23:31:16.474Z,27.25
2023-02-20T23:33:55.047Z,26.42
2023-02-20T23:36:33.004Z,23.70
2023-02-20T23:39:10.995Z,21.02
2023-02-20T23:41:49.636Z,22.38
2023-02-20T23:44:29.862Z,20.50
2023-02-20T23:47:08.182Z,22.23
2023-02-20T23:49:46.682Z,20.95
2023-02-20T23:52:25.075Z,21.35
2023-02-20T23:55:03.616Z,17.30
2023-02-20T23:57:41.724Z,18.55
